sensor_id;sensor_type;location;lat;lon;timestamp;P1;durP1;ratioP1;P2;durP2;ratioP2
59512;SDS011;45330;51.634;5.562;2022-11-14T00:00:20;20.73;;;8.90;;
59512;SDS011;45330;51.634;5.562;2022-11-14T00:02:45;21.10;;;9.70;;
59512;SDS011;45330;51.634;5.562;2022-11-14T00:05:11;20.25;;;10.18;;
59512;SDS011;45330;51.634;5.562;2022-11-14T00:07:36;19.42;;;9.50;;
59512;SDS011;45330;51.634;5.562;2022-11-14T00:10:02;19.70;;;9.73;;
59512;SDS011;45330;51.634;5.562;2022-11-14T00:12:28;19.45;;;9.20;;
59512;SDS011;45330;51.634;5.562;2022-11-14T00:14:53;19.98;;;9.60;;
59512;SDS011;45330;51.634;5.562;2022-11-14T00:17:19;20.15;;;8.63;;
59512;SDS011;45330;51.634;5.562;2022-11-14T00:19:45;21.65;;;9.10;;
59512;SDS011;45330;51.634;5.562;2022-11-14T00:22:10;20.75;;;9.45;;
59512;SDS011;45330;51.634;5.562;2022-11-14T00:24:35;19.60;;;8.77;;
59512;SDS011;45330;51.634;5.562;2022-11-14T00:27:01;19.40;;;8.82;;
59512;SDS011;45330;51.634;5.562;2022-11-14T00:29:26;18.20;;;8.50;;
59512;SDS011;45330;51.634;5.562;2022-11-14T00:31:51;19.48;;;8.90;;
59512;SDS011;45330;51.634;5.562;2022-11-14T00:34:17;21.15;;;9.43;;
59512;SDS011;45330;51.634;5.562;2022-11-14T00:36:42;17.50;;;8.43;;
59512;SDS011;45330;51.634;5.562;2022-11-14T00:39:10;18.92;;;9.57;;
59512;SDS011;45330;51.634;5.562;2022-11-14T00:41:37;19.80;;;8.57;;
59512;SDS011;45330;51.634;5.562;2022-11-14T00:44:03;18.73;;;8.50;;
59512;SDS011;45330;51.634;5.562;2022-11-14T00:46:28;18.80;;;8.55;;
59512;SDS011;45330;51.634;5.562;2022-11-14T00:48:54;18.60;;;8.45;;
59512;SDS011;45330;51.634;5.562;2022-11-14T00:51:19;18.85;;;8.77;;
59512;SDS011;45330;51.634;5.562;2022-11-14T00:53:44;19.75;;;8.82;;
59512;SDS011;45330;51.634;5.562;2022-11-14T00:56:10;19.55;;;9.63;;
59512;SDS011;45330;51.634;5.562;2022-11-14T00:58:35;18.20;;;8.75;;
59512;SDS011;45330;51.634;5.562;2022-11-14T01:01:00;21.60;;;8.82;;
59512;SDS011;45330;51.634;5.562;2022-11-14T01:03:26;19.88;;;8.98;;
59512;SDS011;45330;51.634;5.562;2022-11-14T01:05:51;19.52;;;9.20;;
59512;SDS011;45330;51.634;5.562;2022-11-14T01:08:17;19.52;;;8.50;;
59512;SDS011;45330;51.634;5.562;2022-11-14T01:10:44;19.08;;;8.80;;
59512;SDS011;45330;51.634;5.562;2022-11-14T01:13:12;19.35;;;8.70;;
59512;SDS011;45330;51.634;5.562;2022-11-14T01:15:42;20.50;;;9.13;;
59512;SDS011;45330;51.634;5.562;2022-11-14T01:18:09;19.88;;;8.63;;
59512;SDS011;45330;51.634;5.562;2022-11-14T01:20:39;19.95;;;9.15;;
59512;SDS011;45330;51.634;5.562;2022-11-14T01:23:06;18.38;;;8.55;;
59512;SDS011;45330;51.634;5.562;2022-11-14T01:25:33;19.52;;;9.20;;
59512;SDS011;45330;51.634;5.562;2022-11-14T01:27:59;19.83;;;8.63;;
59512;SDS011;45330;51.634;5.562;2022-11-14T01:30:25;19.92;;;9.93;;
59512;SDS011;45330;51.634;5.562;2022-11-14T01:32:50;19.25;;;9.30;;
59512;SDS011;45330;51.634;5.562;2022-11-14T01:35:16;20.48;;;9.23;;
59512;SDS011;45330;51.634;5.562;2022-11-14T01:37:41;20.42;;;9.82;;
59512;SDS011;45330;51.634;5.562;2022-11-14T01:40:06;22.27;;;9.85;;
59512;SDS011;45330;51.634;5.562;2022-11-14T01:42:33;19.33;;;9.50;;
59512;SDS011;45330;51.634;5.562;2022-11-14T01:44:58;19.42;;;10.00;;
59512;SDS011;45330;51.634;5.562;2022-11-14T01:47:30;20.90;;;10.15;;
59512;SDS011;45330;51.634;5.562;2022-11-14T01:49:57;21.00;;;9.98;;
59512;SDS011;45330;51.634;5.562;2022-11-14T01:52:27;21.98;;;10.98;;
59512;SDS011;45330;51.634;5.562;2022-11-14T01:54:56;20.27;;;10.52;;
59512;SDS011;45330;51.634;5.562;2022-11-14T01:57:28;20.10;;;10.65;;
59512;SDS011;45330;51.634;5.562;2022-11-14T01:59:58;21.05;;;10.13;;
59512;SDS011;45330;51.634;5.562;2022-11-14T02:02:26;22.33;;;11.52;;
59512;SDS011;45330;51.634;5.562;2022-11-14T02:04:58;21.75;;;12.07;;
59512;SDS011;45330;51.634;5.562;2022-11-14T02:07:27;22.52;;;11.98;;
59512;SDS011;45330;51.634;5.562;2022-11-14T02:09:56;22.42;;;11.52;;
59512;SDS011;45330;51.634;5.562;2022-11-14T02:12:23;21.73;;;11.15;;
59512;SDS011;45330;51.634;5.562;2022-11-14T02:14:49;21.45;;;11.30;;
59512;SDS011;45330;51.634;5.562;2022-11-14T02:17:18;22.38;;;11.75;;
59512;SDS011;45330;51.634;5.562;2022-11-14T02:19:47;21.85;;;11.25;;
59512;SDS011;45330;51.634;5.562;2022-11-14T02:22:15;22.40;;;12.23;;
59512;SDS011;45330;51.634;5.562;2022-11-14T02:24:41;21.92;;;11.40;;
59512;SDS011;45330;51.634;5.562;2022-11-14T02:27:07;23.23;;;12.15;;
59512;SDS011;45330;51.634;5.562;2022-11-14T02:29:34;22.77;;;12.05;;
59512;SDS011;45330;51.634;5.562;2022-11-14T02:32:00;24.40;;;12.80;;
59512;SDS011;45330;51.634;5.562;2022-11-14T02:34:26;23.52;;;12.05;;
59512;SDS011;45330;51.634;5.562;2022-11-14T02:36:51;23.23;;;12.45;;
59512;SDS011;45330;51.634;5.562;2022-11-14T02:39:17;23.38;;;12.77;;
59512;SDS011;45330;51.634;5.562;2022-11-14T02:41:42;23.98;;;13.27;;
59512;SDS011;45330;51.634;5.562;2022-11-14T02:44:07;23.33;;;12.38;;
59512;SDS011;45330;51.634;5.562;2022-11-14T02:46:33;25.10;;;13.23;;
59512;SDS011;45330;51.634;5.562;2022-11-14T02:48:58;25.25;;;12.73;;
59512;SDS011;45330;51.634;5.562;2022-11-14T02:51:23;25.20;;;12.30;;
59512;SDS011;45330;51.634;5.562;2022-11-14T02:53:49;26.90;;;12.25;;
59512;SDS011;45330;51.634;5.562;2022-11-14T02:56:14;24.35;;;13.23;;
59512;SDS011;45330;51.634;5.562;2022-11-14T02:58:39;25.48;;;13.27;;
59512;SDS011;45330;51.634;5.562;2022-11-14T03:01:05;23.30;;;12.70;;
59512;SDS011;45330;51.634;5.562;2022-11-14T03:03:30;23.45;;;12.55;;
59512;SDS011;45330;51.634;5.562;2022-11-14T03:05:59;24.50;;;13.05;;
59512;SDS011;45330;51.634;5.562;2022-11-14T03:08:25;23.13;;;12.07;;
59512;SDS011;45330;51.634;5.562;2022-11-14T03:10:51;25.80;;;14.00;;
59512;SDS011;45330;51.634;5.562;2022-11-14T03:13:17;25.23;;;12.95;;
59512;SDS011;45330;51.634;5.562;2022-11-14T03:15:42;28.05;;;13.32;;
59512;SDS011;45330;51.634;5.562;2022-11-14T03:18:07;24.75;;;13.02;;
59512;SDS011;45330;51.634;5.562;2022-11-14T03:20:33;25.52;;;13.07;;
59512;SDS011;45330;51.634;5.562;2022-11-14T03:22:59;26.83;;;13.90;;
59512;SDS011;45330;51.634;5.562;2022-11-14T03:25:24;25.02;;;13.15;;
59512;SDS011;45330;51.634;5.562;2022-11-14T03:27:49;23.50;;;13.13;;
59512;SDS011;45330;51.634;5.562;2022-11-14T03:30:15;25.33;;;12.90;;
59512;SDS011;45330;51.634;5.562;2022-11-14T03:32:40;25.05;;;13.18;;
59512;SDS011;45330;51.634;5.562;2022-11-14T03:35:06;25.38;;;13.60;;
59512;SDS011;45330;51.634;5.562;2022-11-14T03:37:32;26.10;;;14.48;;
59512;SDS011;45330;51.634;5.562;2022-11-14T03:39:57;27.75;;;14.65;;
59512;SDS011;45330;51.634;5.562;2022-11-14T03:42:23;26.73;;;14.75;;
59512;SDS011;45330;51.634;5.562;2022-11-14T03:44:48;24.10;;;13.02;;
59512;SDS011;45330;51.634;5.562;2022-11-14T03:47:13;27.17;;;14.40;;
59512;SDS011;45330;51.634;5.562;2022-11-14T03:49:39;27.42;;;15.05;;
59512;SDS011;45330;51.634;5.562;2022-11-14T03:52:04;29.15;;;15.93;;
59512;SDS011;45330;51.634;5.562;2022-11-14T03:54:30;28.40;;;16.00;;
59512;SDS011;45330;51.634;5.562;2022-11-14T03:56:55;29.13;;;16.45;;
59512;SDS011;45330;51.634;5.562;2022-11-14T03:59:21;27.60;;;15.55;;
59512;SDS011;45330;51.634;5.562;2022-11-14T04:01:46;28.30;;;15.80;;
59512;SDS011;45330;51.634;5.562;2022-11-14T04:04:12;28.15;;;15.85;;
59512;SDS011;45330;51.634;5.562;2022-11-14T04:06:38;28.73;;;17.00;;
59512;SDS011;45330;51.634;5.562;2022-11-14T04:09:03;30.52;;;17.33;;
59512;SDS011;45330;51.634;5.562;2022-11-14T04:11:30;30.05;;;16.75;;
59512;SDS011;45330;51.634;5.562;2022-11-14T04:13:55;31.60;;;16.92;;
59512;SDS011;45330;51.634;5.562;2022-11-14T04:16:20;31.23;;;16.85;;
59512;SDS011;45330;51.634;5.562;2022-11-14T04:18:46;32.30;;;17.27;;
59512;SDS011;45330;51.634;5.562;2022-11-14T04:21:11;31.50;;;17.85;;
59512;SDS011;45330;51.634;5.562;2022-11-14T04:23:37;29.65;;;16.75;;
59512;SDS011;45330;51.634;5.562;2022-11-14T04:26:02;31.13;;;17.13;;
59512;SDS011;45330;51.634;5.562;2022-11-14T04:28:27;31.23;;;17.98;;
59512;SDS011;45330;51.634;5.562;2022-11-14T04:30:53;30.02;;;16.75;;
59512;SDS011;45330;51.634;5.562;2022-11-14T04:33:18;33.08;;;18.67;;
59512;SDS011;45330;51.634;5.562;2022-11-14T04:35:43;31.98;;;18.65;;
59512;SDS011;45330;51.634;5.562;2022-11-14T04:38:09;32.08;;;18.73;;
59512;SDS011;45330;51.634;5.562;2022-11-14T04:40:34;33.88;;;18.73;;
59512;SDS011;45330;51.634;5.562;2022-11-14T04:43:00;32.25;;;19.17;;
59512;SDS011;45330;51.634;5.562;2022-11-14T04:45:25;32.95;;;19.58;;
59512;SDS011;45330;51.634;5.562;2022-11-14T04:47:51;32.70;;;18.77;;
59512;SDS011;45330;51.634;5.562;2022-11-14T04:50:16;33.92;;;19.90;;
59512;SDS011;45330;51.634;5.562;2022-11-14T04:52:42;34.25;;;19.73;;
59512;SDS011;45330;51.634;5.562;2022-11-14T04:55:07;34.90;;;19.75;;
59512;SDS011;45330;51.634;5.562;2022-11-14T04:57:33;33.63;;;20.42;;
59512;SDS011;45330;51.634;5.562;2022-11-14T04:59:58;36.40;;;19.63;;
59512;SDS011;45330;51.634;5.562;2022-11-14T05:02:23;32.90;;;18.48;;
59512;SDS011;45330;51.634;5.562;2022-11-14T05:04:49;33.00;;;18.55;;
59512;SDS011;45330;51.634;5.562;2022-11-14T05:07:14;33.70;;;18.85;;
59512;SDS011;45330;51.634;5.562;2022-11-14T05:09:40;33.83;;;18.60;;
59512;SDS011;45330;51.634;5.562;2022-11-14T05:12:05;34.33;;;18.65;;
59512;SDS011;45330;51.634;5.562;2022-11-14T05:14:31;34.60;;;19.95;;
59512;SDS011;45330;51.634;5.562;2022-11-14T05:16:57;34.05;;;19.50;;
59512;SDS011;45330;51.634;5.562;2022-11-14T05:19:22;33.40;;;19.02;;
59512;SDS011;45330;51.634;5.562;2022-11-14T05:21:48;34.47;;;20.23;;
59512;SDS011;45330;51.634;5.562;2022-11-14T05:24:14;33.95;;;19.00;;
59512;SDS011;45330;51.634;5.562;2022-11-14T05:26:39;33.90;;;18.45;;
59512;SDS011;45330;51.634;5.562;2022-11-14T05:29:05;34.97;;;19.15;;
59512;SDS011;45330;51.634;5.562;2022-11-14T05:31:30;33.13;;;18.25;;
59512;SDS011;45330;51.634;5.562;2022-11-14T05:33:55;33.20;;;19.48;;
59512;SDS011;45330;51.634;5.562;2022-11-14T05:36:21;33.83;;;19.45;;
59512;SDS011;45330;51.634;5.562;2022-11-14T05:38:46;33.15;;;18.15;;
59512;SDS011;45330;51.634;5.562;2022-11-14T05:41:13;34.47;;;19.05;;
59512;SDS011;45330;51.634;5.562;2022-11-14T05:43:40;31.75;;;18.83;;
59512;SDS011;45330;51.634;5.562;2022-11-14T05:46:06;35.53;;;20.05;;
59512;SDS011;45330;51.634;5.562;2022-11-14T05:48:34;33.78;;;18.75;;
59512;SDS011;45330;51.634;5.562;2022-11-14T05:51:00;34.85;;;18.85;;
59512;SDS011;45330;51.634;5.562;2022-11-14T05:53:27;35.13;;;19.77;;
59512;SDS011;45330;51.634;5.562;2022-11-14T05:55:53;33.88;;;19.17;;
59512;SDS011;45330;51.634;5.562;2022-11-14T05:58:19;34.97;;;19.27;;
59512;SDS011;45330;51.634;5.562;2022-11-14T06:00:45;35.22;;;19.67;;
59512;SDS011;45330;51.634;5.562;2022-11-14T06:03:11;35.55;;;19.25;;
59512;SDS011;45330;51.634;5.562;2022-11-14T06:05:38;33.75;;;18.45;;
59512;SDS011;45330;51.634;5.562;2022-11-14T06:08:04;33.25;;;18.95;;
59512;SDS011;45330;51.634;5.562;2022-11-14T06:10:30;35.15;;;19.30;;
59512;SDS011;45330;51.634;5.562;2022-11-14T06:12:55;32.70;;;19.25;;
59512;SDS011;45330;51.634;5.562;2022-11-14T06:15:20;32.72;;;18.67;;
59512;SDS011;45330;51.634;5.562;2022-11-14T06:17:46;33.22;;;18.17;;
59512;SDS011;45330;51.634;5.562;2022-11-14T06:20:11;32.40;;;18.98;;
59512;SDS011;45330;51.634;5.562;2022-11-14T06:22:38;32.75;;;18.85;;
59512;SDS011;45330;51.634;5.562;2022-11-14T06:25:06;32.85;;;18.60;;
59512;SDS011;45330;51.634;5.562;2022-11-14T06:27:32;32.45;;;18.48;;
59512;SDS011;45330;51.634;5.562;2022-11-14T06:29:58;35.38;;;18.48;;
59512;SDS011;45330;51.634;5.562;2022-11-14T06:32:23;34.72;;;19.05;;
59512;SDS011;45330;51.634;5.562;2022-11-14T06:34:48;33.65;;;19.15;;
59512;SDS011;45330;51.634;5.562;2022-11-14T06:37:14;37.38;;;20.30;;
59512;SDS011;45330;51.634;5.562;2022-11-14T06:39:39;34.28;;;18.98;;
59512;SDS011;45330;51.634;5.562;2022-11-14T06:42:05;33.35;;;18.48;;
59512;SDS011;45330;51.634;5.562;2022-11-14T06:44:30;33.72;;;18.60;;
59512;SDS011;45330;51.634;5.562;2022-11-14T06:46:55;31.75;;;18.23;;
59512;SDS011;45330;51.634;5.562;2022-11-14T06:49:21;33.42;;;18.48;;
59512;SDS011;45330;51.634;5.562;2022-11-14T06:51:49;34.90;;;19.27;;
59512;SDS011;45330;51.634;5.562;2022-11-14T06:54:14;33.35;;;18.63;;
59512;SDS011;45330;51.634;5.562;2022-11-14T06:56:40;35.65;;;18.05;;
59512;SDS011;45330;51.634;5.562;2022-11-14T06:59:06;33.90;;;17.65;;
59512;SDS011;45330;51.634;5.562;2022-11-14T07:01:31;32.80;;;17.77;;
59512;SDS011;45330;51.634;5.562;2022-11-14T07:03:57;30.92;;;16.92;;
59512;SDS011;45330;51.634;5.562;2022-11-14T07:06:24;32.45;;;17.20;;
59512;SDS011;45330;51.634;5.562;2022-11-14T07:08:51;32.47;;;17.33;;
59512;SDS011;45330;51.634;5.562;2022-11-14T07:11:19;31.17;;;17.17;;
59512;SDS011;45330;51.634;5.562;2022-11-14T07:13:59;29.77;;;16.70;;
59512;SDS011;45330;51.634;5.562;2022-11-14T07:16:27;32.47;;;17.27;;
59512;SDS011;45330;51.634;5.562;2022-11-14T07:18:54;29.55;;;16.60;;
59512;SDS011;45330;51.634;5.562;2022-11-14T07:21:20;32.85;;;17.15;;
59512;SDS011;45330;51.634;5.562;2022-11-14T07:23:46;31.77;;;16.85;;
59512;SDS011;45330;51.634;5.562;2022-11-14T07:26:11;29.00;;;15.68;;
59512;SDS011;45330;51.634;5.562;2022-11-14T07:28:40;34.05;;;17.73;;
59512;SDS011;45330;51.634;5.562;2022-11-14T07:31:09;32.45;;;17.58;;
59512;SDS011;45330;51.634;5.562;2022-11-14T07:33:37;29.98;;;16.33;;
59512;SDS011;45330;51.634;5.562;2022-11-14T07:36:02;30.50;;;16.23;;
59512;SDS011;45330;51.634;5.562;2022-11-14T07:38:31;31.40;;;17.08;;
59512;SDS011;45330;51.634;5.562;2022-11-14T07:40:58;30.10;;;16.27;;
59512;SDS011;45330;51.634;5.562;2022-11-14T07:43:26;29.50;;;16.50;;
59512;SDS011;45330;51.634;5.562;2022-11-14T07:45:51;30.38;;;16.38;;
59512;SDS011;45330;51.634;5.562;2022-11-14T07:48:17;30.05;;;17.20;;
59512;SDS011;45330;51.634;5.562;2022-11-14T07:50:43;28.52;;;15.93;;
59512;SDS011;45330;51.634;5.562;2022-11-14T07:53:09;29.65;;;15.63;;
59512;SDS011;45330;51.634;5.562;2022-11-14T07:55:35;28.80;;;16.13;;
59512;SDS011;45330;51.634;5.562;2022-11-14T07:58:01;30.63;;;16.42;;
59512;SDS011;45330;51.634;5.562;2022-11-14T08:00:26;28.85;;;15.85;;
59512;SDS011;45330;51.634;5.562;2022-11-14T08:02:52;28.10;;;16.15;;
59512;SDS011;45330;51.634;5.562;2022-11-14T08:05:17;29.73;;;15.70;;
59512;SDS011;45330;51.634;5.562;2022-11-14T08:07:43;26.90;;;16.00;;
59512;SDS011;45330;51.634;5.562;2022-11-14T08:10:09;29.25;;;16.00;;
59512;SDS011;45330;51.634;5.562;2022-11-14T08:12:36;29.63;;;16.27;;
59512;SDS011;45330;51.634;5.562;2022-11-14T08:15:06;29.05;;;16.08;;
59512;SDS011;45330;51.634;5.562;2022-11-14T08:17:32;26.65;;;15.18;;
59512;SDS011;45330;51.634;5.562;2022-11-14T08:19:58;32.35;;;16.52;;
59512;SDS011;45330;51.634;5.562;2022-11-14T08:22:23;27.08;;;16.27;;
59512;SDS011;45330;51.634;5.562;2022-11-14T08:24:49;28.00;;;15.52;;
59512;SDS011;45330;51.634;5.562;2022-11-14T08:27:14;27.38;;;15.27;;
59512;SDS011;45330;51.634;5.562;2022-11-14T08:29:40;26.90;;;14.70;;
59512;SDS011;45330;51.634;5.562;2022-11-14T08:32:05;29.38;;;16.23;;
59512;SDS011;45330;51.634;5.562;2022-11-14T08:34:31;27.33;;;15.07;;
59512;SDS011;45330;51.634;5.562;2022-11-14T08:36:56;26.63;;;15.38;;
59512;SDS011;45330;51.634;5.562;2022-11-14T08:39:22;27.63;;;14.63;;
59512;SDS011;45330;51.634;5.562;2022-11-14T08:41:47;27.00;;;15.15;;
59512;SDS011;45330;51.634;5.562;2022-11-14T08:44:13;25.55;;;14.27;;
59512;SDS011;45330;51.634;5.562;2022-11-14T08:46:38;26.38;;;15.05;;
59512;SDS011;45330;51.634;5.562;2022-11-14T08:49:04;29.88;;;15.13;;
59512;SDS011;45330;51.634;5.562;2022-11-14T08:51:29;25.10;;;13.85;;
59512;SDS011;45330;51.634;5.562;2022-11-14T08:53:54;26.63;;;14.57;;
59512;SDS011;45330;51.634;5.562;2022-11-14T08:56:20;27.13;;;14.45;;
59512;SDS011;45330;51.634;5.562;2022-11-14T08:58:45;27.25;;;15.00;;
59512;SDS011;45330;51.634;5.562;2022-11-14T09:01:10;26.25;;;15.55;;
59512;SDS011;45330;51.634;5.562;2022-11-14T09:03:36;26.92;;;16.17;;
59512;SDS011;45330;51.634;5.562;2022-11-14T09:06:01;31.50;;;18.90;;
59512;SDS011;45330;51.634;5.562;2022-11-14T09:08:27;34.10;;;22.85;;
59512;SDS011;45330;51.634;5.562;2022-11-14T09:10:54;35.80;;;23.88;;
59512;SDS011;45330;51.634;5.562;2022-11-14T09:13:20;35.55;;;24.42;;
59512;SDS011;45330;51.634;5.562;2022-11-14T09:15:46;32.00;;;20.70;;
59512;SDS011;45330;51.634;5.562;2022-11-14T09:18:12;29.30;;;18.52;;
59512;SDS011;45330;51.634;5.562;2022-11-14T09:20:39;28.20;;;16.58;;
59512;SDS011;45330;51.634;5.562;2022-11-14T09:23:04;26.67;;;15.20;;
59512;SDS011;45330;51.634;5.562;2022-11-14T09:25:30;27.30;;;15.30;;
59512;SDS011;45330;51.634;5.562;2022-11-14T09:27:55;26.48;;;15.13;;
59512;SDS011;45330;51.634;5.562;2022-11-14T09:30:21;26.55;;;14.57;;
59512;SDS011;45330;51.634;5.562;2022-11-14T09:32:47;27.15;;;15.68;;
59512;SDS011;45330;51.634;5.562;2022-11-14T09:35:18;26.25;;;15.45;;
59512;SDS011;45330;51.634;5.562;2022-11-14T09:37:44;28.10;;;15.55;;
59512;SDS011;45330;51.634;5.562;2022-11-14T09:40:10;26.75;;;15.48;;
59512;SDS011;45330;51.634;5.562;2022-11-14T09:42:44;25.88;;;15.15;;
59512;SDS011;45330;51.634;5.562;2022-11-14T09:45:21;27.70;;;15.50;;
59512;SDS011;45330;51.634;5.562;2022-11-14T09:47:48;26.98;;;14.57;;
59512;SDS011;45330;51.634;5.562;2022-11-14T09:50:19;25.38;;;13.85;;
59512;SDS011;45330;51.634;5.562;2022-11-14T09:52:53;25.95;;;14.93;;
59512;SDS011;45330;51.634;5.562;2022-11-14T09:57:47;26.95;;;15.02;;
59512;SDS011;45330;51.634;5.562;2022-11-14T10:00:14;27.33;;;15.00;;
59512;SDS011;45330;51.634;5.562;2022-11-14T10:02:57;26.75;;;15.40;;
59512;SDS011;45330;51.634;5.562;2022-11-14T10:10:58;26.85;;;15.20;;
59512;SDS011;45330;51.634;5.562;2022-11-14T10:18:43;26.88;;;15.02;;
59512;SDS011;45330;51.634;5.562;2022-11-14T10:21:41;27.75;;;14.40;;
59512;SDS011;45330;51.634;5.562;2022-11-14T10:27:05;26.92;;;15.30;;
59512;SDS011;45330;51.634;5.562;2022-11-14T10:29:39;27.35;;;15.32;;
59512;SDS011;45330;51.634;5.562;2022-11-14T10:38:08;26.52;;;15.30;;
59512;SDS011;45330;51.634;5.562;2022-11-14T10:40:46;28.48;;;15.98;;
59512;SDS011;45330;51.634;5.562;2022-11-14T10:43:19;26.15;;;14.23;;
59512;SDS011;45330;51.634;5.562;2022-11-14T10:48:38;26.33;;;15.60;;
59512;SDS011;45330;51.634;5.562;2022-11-14T10:53:59;29.30;;;15.88;;
59512;SDS011;45330;51.634;5.562;2022-11-14T10:56:30;27.98;;;16.33;;
59512;SDS011;45330;51.634;5.562;2022-11-14T10:58:56;29.75;;;17.17;;
59512;SDS011;45330;51.634;5.562;2022-11-14T11:01:35;28.88;;;17.05;;
59512;SDS011;45330;51.634;5.562;2022-11-14T11:04:20;27.83;;;16.48;;
59512;SDS011;45330;51.634;5.562;2022-11-14T11:06:54;29.50;;;17.35;;
59512;SDS011;45330;51.634;5.562;2022-11-14T11:10:02;31.98;;;17.85;;
59512;SDS011;45330;51.634;5.562;2022-11-14T11:12:47;31.50;;;18.55;;
59512;SDS011;45330;51.634;5.562;2022-11-14T11:15:16;29.95;;;17.98;;
59512;SDS011;45330;51.634;5.562;2022-11-14T11:17:52;29.75;;;17.58;;
59512;SDS011;45330;51.634;5.562;2022-11-14T11:25:36;31.23;;;18.42;;
59512;SDS011;45330;51.634;5.562;2022-11-14T11:30:31;33.35;;;21.05;;
59512;SDS011;45330;51.634;5.562;2022-11-14T11:33:42;32.38;;;20.95;;
59512;SDS011;45330;51.634;5.562;2022-11-14T11:35:47;34.45;;;22.90;;
59512;SDS011;45330;51.634;5.562;2022-11-14T11:38:15;34.92;;;23.35;;
59512;SDS011;45330;51.634;5.562;2022-11-14T11:40:45;37.17;;;24.42;;
59512;SDS011;45330;51.634;5.562;2022-11-14T11:45:49;37.05;;;23.77;;
59512;SDS011;45330;51.634;5.562;2022-11-14T11:48:17;35.70;;;23.88;;
59512;SDS011;45330;51.634;5.562;2022-11-14T11:50:44;35.95;;;24.88;;
59512;SDS011;45330;51.634;5.562;2022-11-14T11:55:52;35.75;;;24.50;;
59512;SDS011;45330;51.634;5.562;2022-11-14T12:01:12;39.38;;;26.98;;
59512;SDS011;45330;51.634;5.562;2022-11-14T12:03:38;40.65;;;27.92;;
59512;SDS011;45330;51.634;5.562;2022-11-14T12:06:21;39.78;;;28.45;;
59512;SDS011;45330;51.634;5.562;2022-11-14T12:11:23;42.30;;;29.63;;
59512;SDS011;45330;51.634;5.562;2022-11-14T12:13:54;41.58;;;29.05;;
59512;SDS011;45330;51.634;5.562;2022-11-14T12:16:30;40.50;;;26.90;;
59512;SDS011;45330;51.634;5.562;2022-11-14T12:27:21;35.88;;;22.00;;
59512;SDS011;45330;51.634;5.562;2022-11-14T12:30:08;38.75;;;24.98;;
59512;SDS011;45330;51.634;5.562;2022-11-14T12:35:31;39.92;;;24.75;;
59512;SDS011;45330;51.634;5.562;2022-11-14T12:38:00;36.30;;;22.73;;
59512;SDS011;45330;51.634;5.562;2022-11-14T12:40:33;36.47;;;22.55;;
59512;SDS011;45330;51.634;5.562;2022-11-14T12:43:01;36.45;;;22.50;;
59512;SDS011;45330;51.634;5.562;2022-11-14T12:50:49;36.50;;;21.60;;
59512;SDS011;45330;51.634;5.562;2022-11-14T12:59:15;33.60;;;20.02;;
59512;SDS011;45330;51.634;5.562;2022-11-14T13:05:08;34.83;;;21.02;;
59512;SDS011;45330;51.634;5.562;2022-11-14T13:10:14;33.55;;;18.73;;
59512;SDS011;45330;51.634;5.562;2022-11-14T13:16:01;32.35;;;19.17;;
59512;SDS011;45330;51.634;5.562;2022-11-14T13:27:25;32.85;;;19.40;;
59512;SDS011;45330;51.634;5.562;2022-11-14T13:29:53;33.97;;;19.23;;
59512;SDS011;45330;51.634;5.562;2022-11-14T13:35:25;33.35;;;19.70;;
59512;SDS011;45330;51.634;5.562;2022-11-14T13:38:20;32.35;;;19.23;;
59512;SDS011;45330;51.634;5.562;2022-11-14T13:43:45;35.97;;;20.45;;
59512;SDS011;45330;51.634;5.562;2022-11-14T13:51:45;34.40;;;20.90;;
59512;SDS011;45330;51.634;5.562;2022-11-14T13:54:12;36.45;;;21.52;;
59512;SDS011;45330;51.634;5.562;2022-11-14T14:07:19;36.20;;;22.45;;
59512;SDS011;45330;51.634;5.562;2022-11-14T14:10:24;36.50;;;22.20;;
59512;SDS011;45330;51.634;5.562;2022-11-14T14:13:53;35.92;;;22.05;;
59512;SDS011;45330;51.634;5.562;2022-11-14T14:16:17;36.88;;;22.23;;
59512;SDS011;45330;51.634;5.562;2022-11-14T14:21:28;36.42;;;22.98;;
59512;SDS011;45330;51.634;5.562;2022-11-14T14:24:24;38.70;;;24.70;;
59512;SDS011;45330;51.634;5.562;2022-11-14T14:32:34;35.70;;;23.50;;
59512;SDS011;45330;51.634;5.562;2022-11-14T14:35:18;38.67;;;23.17;;
59512;SDS011;45330;51.634;5.562;2022-11-14T14:37:48;40.97;;;22.98;;
59512;SDS011;45330;51.634;5.562;2022-11-14T14:40:28;33.55;;;21.15;;
59512;SDS011;45330;51.634;5.562;2022-11-14T14:42:57;34.30;;;22.65;;
59512;SDS011;45330;51.634;5.562;2022-11-14T14:45:25;34.03;;;21.77;;
59512;SDS011;45330;51.634;5.562;2022-11-14T14:47:59;35.05;;;22.73;;
59512;SDS011;45330;51.634;5.562;2022-11-14T14:50:30;34.35;;;22.40;;
59512;SDS011;45330;51.634;5.562;2022-11-14T14:53:02;36.03;;;22.58;;
59512;SDS011;45330;51.634;5.562;2022-11-14T14:55:49;34.60;;;23.13;;
59512;SDS011;45330;51.634;5.562;2022-11-14T14:58:27;35.15;;;22.42;;
59512;SDS011;45330;51.634;5.562;2022-11-14T15:01:04;34.15;;;22.58;;
59512;SDS011;45330;51.634;5.562;2022-11-14T15:06:20;33.92;;;21.88;;
59512;SDS011;45330;51.634;5.562;2022-11-14T15:08:46;41.47;;;23.27;;
59512;SDS011;45330;51.634;5.562;2022-11-14T15:11:12;31.20;;;20.92;;
59512;SDS011;45330;51.634;5.562;2022-11-14T15:13:39;32.67;;;21.95;;
59512;SDS011;45330;51.634;5.562;2022-11-14T15:16:06;32.38;;;21.80;;
59512;SDS011;45330;51.634;5.562;2022-11-14T15:18:33;33.22;;;21.25;;
59512;SDS011;45330;51.634;5.562;2022-11-14T15:21:06;33.80;;;22.02;;
59512;SDS011;45330;51.634;5.562;2022-11-14T15:23:34;33.00;;;20.50;;
59512;SDS011;45330;51.634;5.562;2022-11-14T15:26:02;32.80;;;20.85;;
59512;SDS011;45330;51.634;5.562;2022-11-14T15:28:34;32.60;;;20.90;;
59512;SDS011;45330;51.634;5.562;2022-11-14T15:31:00;31.27;;;19.75;;
59512;SDS011;45330;51.634;5.562;2022-11-14T15:33:28;32.40;;;20.92;;
59512;SDS011;45330;51.634;5.562;2022-11-14T15:36:08;30.15;;;19.20;;
59512;SDS011;45330;51.634;5.562;2022-11-14T15:38:36;29.73;;;18.77;;
59512;SDS011;45330;51.634;5.562;2022-11-14T15:41:18;31.38;;;20.33;;
59512;SDS011;45330;51.634;5.562;2022-11-14T15:43:52;31.55;;;19.77;;
59512;SDS011;45330;51.634;5.562;2022-11-14T15:49:21;31.05;;;18.20;;
59512;SDS011;45330;51.634;5.562;2022-11-14T15:54:29;29.25;;;17.70;;
59512;SDS011;45330;51.634;5.562;2022-11-14T15:57:00;29.73;;;17.00;;
59512;SDS011;45330;51.634;5.562;2022-11-14T15:59:38;28.77;;;16.15;;
59512;SDS011;45330;51.634;5.562;2022-11-14T16:02:15;28.45;;;17.05;;
59512;SDS011;45330;51.634;5.562;2022-11-14T16:04:43;29.27;;;15.90;;
59512;SDS011;45330;51.634;5.562;2022-11-14T16:07:11;27.98;;;15.50;;
59512;SDS011;45330;51.634;5.562;2022-11-14T16:09:37;28.60;;;16.05;;
59512;SDS011;45330;51.634;5.562;2022-11-14T16:12:03;30.17;;;15.60;;
59512;SDS011;45330;51.634;5.562;2022-11-14T16:14:28;27.30;;;15.48;;
59512;SDS011;45330;51.634;5.562;2022-11-14T16:16:54;27.30;;;15.57;;
59512;SDS011;45330;51.634;5.562;2022-11-14T16:19:19;28.48;;;15.90;;
59512;SDS011;45330;51.634;5.562;2022-11-14T16:21:45;30.83;;;17.60;;
59512;SDS011;45330;51.634;5.562;2022-11-14T16:24:21;28.40;;;15.35;;
59512;SDS011;45330;51.634;5.562;2022-11-14T16:26:48;29.48;;;16.02;;
59512;SDS011;45330;51.634;5.562;2022-11-14T16:29:14;29.75;;;16.75;;
59512;SDS011;45330;51.634;5.562;2022-11-14T16:31:42;29.17;;;16.48;;
59512;SDS011;45330;51.634;5.562;2022-11-14T16:34:09;32.33;;;16.83;;